sensor_id;sensor_type;location;lat;lon;timestamp;temperature;humidity
5258;DHT22;2651;51.594;9.928;2022-10-18T00:00:38;18.00;99.90
5258;DHT22;2651;51.594;9.928;2022-10-18T00:01:39;18.00;99.90
5258;DHT22;2651;51.594;9.928;2022-10-18T00:02:41;17.90;99.90
5258;DHT22;2651;51.594;9.928;2022-10-18T00:03:43;17.90;99.90
5258;DHT22;2651;51.594;9.928;2022-10-18T00:04:45;17.90;99.90
5258;DHT22;2651;51.594;9.928;2022-10-18T00:05:48;17.90;99.90
5258;DHT22;2651;51.594;9.928;2022-10-18T00:06:49;17.90;99.90
5258;DHT22;2651;51.594;9.928;2022-10-18T00:07:51;17.90;99.90
5258;DHT22;2651;51.594;9.928;2022-10-18T00:08:53;18.00;99.90
5258;DHT22;2651;51.594;9.928;2022-10-18T00:09:54;17.90;99.90
5258;DHT22;2651;51.594;9.928;2022-10-18T00:10:56;17.90;99.90
5258;DHT22;2651;51.594;9.928;2022-10-18T00:11:58;17.90;99.90
5258;DHT22;2651;51.594;9.928;2022-10-18T00:13:00;17.80;99.90
5258;DHT22;2651;51.594;9.928;2022-10-18T00:14:01;17.80;99.90
5258;DHT22;2651;51.594;9.928;2022-10-18T00:15:04;17.80;99.90
5258;DHT22;2651;51.594;9.928;2022-10-18T00:16:11;17.80;99.90
5258;DHT22;2651;51.594;9.928;2022-10-18T00:17:13;17.80;99.90
5258;DHT22;2651;51.594;9.928;2022-10-18T00:18:15;17.80;99.90
5258;DHT22;2651;51.594;9.928;2022-10-18T00:19:16;17.70;99.90
5258;DHT22;2651;51.594;9.928;2022-10-18T00:20:18;17.70;99.90
5258;DHT22;2651;51.594;9.928;2022-10-18T00:21:22;17.60;99.90
5258;DHT22;2651;51.594;9.928;2022-10-18T00:22:23;17.70;99.90
5258;DHT22;2651;51.594;9.928;2022-10-18T00:23:27;17.70;99.90
5258;DHT22;2651;51.594;9.928;2022-10-18T00:24:29;17.70;99.90
5258;DHT22;2651;51.594;9.928;2022-10-18T00:25:30;17.70;99.90
5258;DHT22;2651;51.594;9.928;2022-10-18T00:26:32;17.70;99.90
5258;DHT22;2651;51.594;9.928;2022-10-18T00:27:34;17.70;99.90
5258;DHT22;2651;51.594;9.928;2022-10-18T00:28:36;17.70;99.90
5258;DHT22;2651;51.594;9.928;2022-10-18T00:29:39;17.60;99.90
5258;DHT22;2651;51.594;9.928;2022-10-18T00:30:41;17.60;99.90
5258;DHT22;2651;51.594;9.928;2022-10-18T00:31:43;17.60;99.90
5258;DHT22;2651;51.594;9.928;2022-10-18T00:32:45;17.50;99.90
5258;DHT22;2651;51.594;9.928;2022-10-18T00:33:50;17.50;99.90
5258;DHT22;2651;51.594;9.928;2022-10-18T00:34:52;17.60;99.90
5258;DHT22;2651;51.594;9.928;2022-10-18T00:35:53;17.70;99.90
5258;DHT22;2651;51.594;9.928;2022-10-18T00:36:55;17.70;99.90
5258;DHT22;2651;51.594;9.928;2022-10-18T00:37:56;17.70;99.90
5258;DHT22;2651;51.594;9.928;2022-10-18T00:38:59;17.70;99.90
5258;DHT22;2651;51.594;9.928;2022-10-18T00:40:01;17.70;99.90
5258;DHT22;2651;51.594;9.928;2022-10-18T00:41:04;17.70;99.90
5258;DHT22;2651;51.594;9.928;2022-10-18T00:42:06;17.70;99.90
5258;DHT22;2651;51.594;9.928;2022-10-18T00:43:14;17.70;99.90
5258;DHT22;2651;51.594;9.928;2022-10-18T00:45:21;17.70;99.90
5258;DHT22;2651;51.594;9.928;2022-10-18T00:46:25;17.60;99.90
5258;DHT22;2651;51.594;9.928;2022-10-18T00:47:27;17.60;99.90
5258;DHT22;2651;51.594;9.928;2022-10-18T00:48:29;17.60;99.90
5258;DHT22;2651;51.594;9.928;2022-10-18T00:49:33;17.70;99.90
5258;DHT22;2651;51.594;9.928;2022-10-18T00:50:36;17.70;99.90
5258;DHT22;2651;51.594;9.928;2022-10-18T00:51:45;17.60;99.90
5258;DHT22;2651;51.594;9.928;2022-10-18T00:52:55;17.70;99.90
5258;DHT22;2651;51.594;9.928;2022-10-18T00:53:58;17.70;99.90
5258;DHT22;2651;51.594;9.928;2022-10-18T00:55:01;17.70;99.90
5258;DHT22;2651;51.594;9.928;2022-10-18T00:56:03;17.60;99.90
5258;DHT22;2651;51.594;9.928;2022-10-18T00:57:05;17.60;99.90
5258;DHT22;2651;51.594;9.928;2022-10-18T00:58:07;17.60;99.90
5258;DHT22;2651;51.594;9.928;2022-10-18T00:59:11;17.50;99.90
5258;DHT22;2651;51.594;9.928;2022-10-18T01:00:14;17.60;99.90
5258;DHT22;2651;51.594;9.928;2022-10-18T01:01:15;17.60;99.90
5258;DHT22;2651;51.594;9.928;2022-10-18T01:02:17;17.70;99.90
5258;DHT22;2651;51.594;9.928;2022-10-18T01:03:19;17.70;99.90
5258;DHT22;2651;51.594;9.928;2022-10-18T01:04:21;17.70;99.90
5258;DHT22;2651;51.594;9.928;2022-10-18T01:05:24;17.80;99.90
5258;DHT22;2651;51.594;9.928;2022-10-18T01:06:27;17.70;99.90
5258;DHT22;2651;51.594;9.928;2022-10-18T01:09:24;17.70;99.90
5258;DHT22;2651;51.594;9.928;2022-10-18T01:12:08;17.60;99.90
5258;DHT22;2651;51.594;9.928;2022-10-18T01:14:56;17.60;99.90
5258;DHT22;2651;51.594;9.928;2022-10-18T01:16:22;17.50;99.90
5258;DHT22;2651;51.594;9.928;2022-10-18T01:20:43;17.40;99.90
5258;DHT22;2651;51.594;9.928;2022-10-18T01:22:32;17.30;99.90
5258;DHT22;2651;51.594;9.928;2022-10-18T01:25:20;17.30;99.90
5258;DHT22;2651;51.594;9.928;2022-10-18T01:28:40;17.20;99.90
5258;DHT22;2651;51.594;9.928;2022-10-18T01:31:21;17.00;99.90
5258;DHT22;2651;51.594;9.928;2022-10-18T01:32:27;16.90;99.90
5258;DHT22;2651;51.594;9.928;2022-10-18T01:33:45;16.90;99.90
5258;DHT22;2651;51.594;9.928;2022-10-18T01:34:56;16.90;99.90
5258;DHT22;2651;51.594;9.928;2022-10-18T01:36:27;16.80;99.90
5258;DHT22;2651;51.594;9.928;2022-10-18T01:37:30;16.90;99.90
5258;DHT22;2651;51.594;9.928;2022-10-18T01:38:33;16.80;99.90
5258;DHT22;2651;51.594;9.928;2022-10-18T01:39:40;16.80;99.90
5258;DHT22;2651;51.594;9.928;2022-10-18T01:40:44;16.80;99.90
5258;DHT22;2651;51.594;9.928;2022-10-18T01:41:49;16.80;99.90
5258;DHT22;2651;51.594;9.928;2022-10-18T01:42:51;16.80;99.90
5258;DHT22;2651;51.594;9.928;2022-10-18T01:43:57;16.80;99.90
5258;DHT22;2651;51.594;9.928;2022-10-18T01:45:00;16.70;99.90
5258;DHT22;2651;51.594;9.928;2022-10-18T01:46:04;16.80;99.90
5258;DHT22;2651;51.594;9.928;2022-10-18T01:47:08;16.70;99.90
5258;DHT22;2651;51.594;9.928;2022-10-18T01:48:12;16.70;99.90
5258;DHT22;2651;51.594;9.928;2022-10-18T01:49:14;16.70;99.90
5258;DHT22;2651;51.594;9.928;2022-10-18T01:50:27;16.70;99.90
5258;DHT22;2651;51.594;9.928;2022-10-18T01:51:31;16.80;99.90
5258;DHT22;2651;51.594;9.928;2022-10-18T01:52:33;16.70;99.90
5258;DHT22;2651;51.594;9.928;2022-10-18T01:53:35;16.70;99.90
5258;DHT22;2651;51.594;9.928;2022-10-18T01:54:38;16.70;99.90
5258;DHT22;2651;51.594;9.928;2022-10-18T01:55:46;16.70;99.90
5258;DHT22;2651;51.594;9.928;2022-10-18T02:00:38;16.60;99.90
5258;DHT22;2651;51.594;9.928;2022-10-18T02:03:05;16.60;99.90
5258;DHT22;2651;51.594;9.928;2022-10-18T02:04:28;16.60;99.90
5258;DHT22;2651;51.594;9.928;2022-10-18T02:07:02;16.60;99.90
5258;DHT22;2651;51.594;9.928;2022-10-18T02:08:38;16.60;99.90
5258;DHT22;2651;51.594;9.928;2022-10-18T02:09:47;16.60;99.90
5258;DHT22;2651;51.594;9.928;2022-10-18T02:12:06;16.50;99.90
5258;DHT22;2651;51.594;9.928;2022-10-18T02:13:15;16.50;99.90
5258;DHT22;2651;51.594;9.928;2022-10-18T02:14:18;16.50;99.90
5258;DHT22;2651;51.594;9.928;2022-10-18T02:15:26;16.40;99.90
5258;DHT22;2651;51.594;9.928;2022-10-18T02:16:52;16.40;99.90
5258;DHT22;2651;51.594;9.928;2022-10-18T02:17:55;16.40;99.90
5258;DHT22;2651;51.594;9.928;2022-10-18T02:19:01;16.40;99.90
5258;DHT22;2651;51.594;9.928;2022-10-18T02:20:06;16.40;99.90
5258;DHT22;2651;51.594;9.928;2022-10-18T02:21:12;16.30;99.90
5258;DHT22;2651;51.594;9.928;2022-10-18T02:22:16;16.30;99.90
5258;DHT22;2651;51.594;9.928;2022-10-18T02:23:21;16.30;99.90
5258;DHT22;2651;51.594;9.928;2022-10-18T02:24:29;16.30;99.90
5258;DHT22;2651;51.594;9.928;2022-10-18T02:25:33;16.40;99.90
5258;DHT22;2651;51.594;9.928;2022-10-18T02:26:35;16.50;99.90
5258;DHT22;2651;51.594;9.928;2022-10-18T02:27:37;16.50;99.90
5258;DHT22;2651;51.594;9.928;2022-10-18T02:28:39;16.50;99.90
5258;DHT22;2651;51.594;9.928;2022-10-18T02:29:41;16.50;99.90
5258;DHT22;2651;51.594;9.928;2022-10-18T02:30:51;16.50;99.90
5258;DHT22;2651;51.594;9.928;2022-10-18T02:33:52;16.50;99.90
5258;DHT22;2651;51.594;9.928;2022-10-18T02:35:05;16.40;99.90
5258;DHT22;2651;51.594;9.928;2022-10-18T02:37:04;16.50;99.90
5258;DHT22;2651;51.594;9.928;2022-10-18T02:37:41;16.40;99.90
5258;DHT22;2651;51.594;9.928;2022-10-18T02:38:44;16.40;99.90
5258;DHT22;2651;51.594;9.928;2022-10-18T02:39:48;16.40;99.90
5258;DHT22;2651;51.594;9.928;2022-10-18T02:40:51;16.50;99.90
5258;DHT22;2651;51.594;9.928;2022-10-18T02:41:53;16.50;99.90
5258;DHT22;2651;51.594;9.928;2022-10-18T02:42:57;16.50;99.90
5258;DHT22;2651;51.594;9.928;2022-10-18T02:43:59;16.50;99.90
5258;DHT22;2651;51.594;9.928;2022-10-18T02:45:01;16.50;99.90
5258;DHT22;2651;51.594;9.928;2022-10-18T02:46:03;16.50;99.90
5258;DHT22;2651;51.594;9.928;2022-10-18T02:47:06;16.50;99.90
5258;DHT22;2651;51.594;9.928;2022-10-18T02:48:08;16.50;99.90
5258;DHT22;2651;51.594;9.928;2022-10-18T02:49:10;16.50;99.90
5258;DHT22;2651;51.594;9.928;2022-10-18T02:50:12;16.50;99.90
5258;DHT22;2651;51.594;9.928;2022-10-18T02:51:15;16.40;99.90
5258;DHT22;2651;51.594;9.928;2022-10-18T02:52:16;16.40;99.90
5258;DHT22;2651;51.594;9.928;2022-10-18T02:53:18;16.40;99.90
5258;DHT22;2651;51.594;9.928;2022-10-18T02:54:20;16.40;99.90
5258;DHT22;2651;51.594;9.928;2022-10-18T02:55:21;16.30;99.90
5258;DHT22;2651;51.594;9.928;2022-10-18T02:56:23;16.30;99.90
5258;DHT22;2651;51.594;9.928;2022-10-18T02:57:25;16.20;99.90
5258;DHT22;2651;51.594;9.928;2022-10-18T02:58:27;16.20;99.90
5258;DHT22;2651;51.594;9.928;2022-10-18T02:59:28;16.30;99.90
5258;DHT22;2651;51.594;9.928;2022-10-18T03:00:30;16.20;99.90
5258;DHT22;2651;51.594;9.928;2022-10-18T03:01:33;16.20;99.90
5258;DHT22;2651;51.594;9.928;2022-10-18T03:02:36;16.20;99.90
5258;DHT22;2651;51.594;9.928;2022-10-18T03:03:38;16.20;99.90
5258;DHT22;2651;51.594;9.928;2022-10-18T03:04:39;16.10;99.90
5258;DHT22;2651;51.594;9.928;2022-10-18T03:05:41;16.20;99.90
5258;DHT22;2651;51.594;9.928;2022-10-18T03:06:43;16.30;99.90
5258;DHT22;2651;51.594;9.928;2022-10-18T03:07:44;16.30;99.90
5258;DHT22;2651;51.594;9.928;2022-10-18T03:08:46;16.30;99.90
5258;DHT22;2651;51.594;9.928;2022-10-18T03:09:48;16.30;99.90
5258;DHT22;2651;51.594;9.928;2022-10-18T03:10:49;16.30;99.90
5258;DHT22;2651;51.594;9.928;2022-10-18T03:11:51;16.20;99.90
5258;DHT22;2651;51.594;9.928;2022-10-18T03:12:53;16.20;99.90
5258;DHT22;2651;51.594;9.928;2022-10-18T03:13:54;16.30;99.90
5258;DHT22;2651;51.594;9.928;2022-10-18T03:14:56;16.20;99.90
5258;DHT22;2651;51.594;9.928;2022-10-18T03:15:58;16.20;99.90
5258;DHT22;2651;51.594;9.928;2022-10-18T03:16:59;16.20;99.90
5258;DHT22;2651;51.594;9.928;2022-10-18T03:18:01;16.20;99.90
5258;DHT22;2651;51.594;9.928;2022-10-18T03:19:03;16.20;99.90
5258;DHT22;2651;51.594;9.928;2022-10-18T03:20:05;16.20;99.90
5258;DHT22;2651;51.594;9.928;2022-10-18T03:21:07;16.10;99.90
5258;DHT22;2651;51.594;9.928;2022-10-18T03:22:09;16.10;99.90
5258;DHT22;2651;51.594;9.928;2022-10-18T03:23:10;16.10;99.90
5258;DHT22;2651;51.594;9.928;2022-10-18T03:24:12;16.10;99.90
5258;DHT22;2651;51.594;9.928;2022-10-18T03:25:14;16.10;99.90
5258;DHT22;2651;51.594;9.928;2022-10-18T03:26:15;16.10;99.90
5258;DHT22;2651;51.594;9.928;2022-10-18T03:27:17;16.10;99.90
5258;DHT22;2651;51.594;9.928;2022-10-18T03:28:19;16.20;99.90
5258;DHT22;2651;51.594;9.928;2022-10-18T03:29:21;16.20;99.90
5258;DHT22;2651;51.594;9.928;2022-10-18T03:30:23;16.30;99.90
5258;DHT22;2651;51.594;9.928;2022-10-18T03:31:24;16.30;99.90
5258;DHT22;2651;51.594;9.928;2022-10-18T03:32:26;16.30;99.90
5258;DHT22;2651;51.594;9.928;2022-10-18T03:33:29;16.30;99.90
5258;DHT22;2651;51.594;9.928;2022-10-18T03:34:30;16.30;99.90
5258;DHT22;2651;51.594;9.928;2022-10-18T03:35:32;16.30;99.90
5258;DHT22;2651;51.594;9.928;2022-10-18T03:36:34;16.30;99.90
5258;DHT22;2651;51.594;9.928;2022-10-18T03:37:35;16.30;99.90
5258;DHT22;2651;51.594;9.928;2022-10-18T03:38:37;16.30;99.90
5258;DHT22;2651;51.594;9.928;2022-10-18T03:39:39;16.20;99.90
5258;DHT22;2651;51.594;9.928;2022-10-18T03:40:40;16.20;99.90
5258;DHT22;2651;51.594;9.928;2022-10-18T03:41:42;16.20;99.90
5258;DHT22;2651;51.594;9.928;2022-10-18T03:42:43;16.20;99.90
5258;DHT22;2651;51.594;9.928;2022-10-18T03:43:45;16.20;99.90
5258;DHT22;2651;51.594;9.928;2022-10-18T03:44:47;16.20;99.90
5258;DHT22;2651;51.594;9.928;2022-10-18T03:45:49;16.20;99.90
5258;DHT22;2651;51.594;9.928;2022-10-18T03:46:51;16.20;99.90
5258;DHT22;2651;51.594;9.928;2022-10-18T03:47:52;16.20;99.90
5258;DHT22;2651;51.594;9.928;2022-10-18T03:48:54;16.30;99.90
5258;DHT22;2651;51.594;9.928;2022-10-18T03:49:56;16.40;99.90
5258;DHT22;2651;51.594;9.928;2022-10-18T03:50:58;16.40;99.90
5258;DHT22;2651;51.594;9.928;2022-10-18T03:51:59;16.40;99.90
5258;DHT22;2651;51.594;9.928;2022-10-18T03:53:01;16.40;99.90
5258;DHT22;2651;51.594;9.928;2022-10-18T03:54:03;16.40;99.90
5258;DHT22;2651;51.594;9.928;2022-10-18T03:55:05;16.50;99.90
5258;DHT22;2651;51.594;9.928;2022-10-18T03:56:06;16.50;99.90
5258;DHT22;2651;51.594;9.928;2022-10-18T03:57:08;16.50;99.90
5258;DHT22;2651;51.594;9.928;2022-10-18T03:58:10;16.50;99.90
5258;DHT22;2651;51.594;9.928;2022-10-18T03:59:11;16.50;99.90
5258;DHT22;2651;51.594;9.928;2022-10-18T04:00:14;16.50;99.90
5258;DHT22;2651;51.594;9.928;2022-10-18T04:01:16;16.50;99.90
5258;DHT22;2651;51.594;9.928;2022-10-18T04:02:18;16.40;99.90
5258;DHT22;2651;51.594;9.928;2022-10-18T04:03:21;16.40;99.90
5258;DHT22;2651;51.594;9.928;2022-10-18T04:04:23;16.50;99.90
5258;DHT22;2651;51.594;9.928;2022-10-18T04:05:24;16.50;99.90
5258;DHT22;2651;51.594;9.928;2022-10-18T04:06:28;16.50;99.90
5258;DHT22;2651;51.594;9.928;2022-10-18T04:07:30;16.50;99.90
5258;DHT22;2651;51.594;9.928;2022-10-18T04:08:31;16.50;99.90
5258;DHT22;2651;51.594;9.928;2022-10-18T04:09:33;16.50;99.90
5258;DHT22;2651;51.594;9.928;2022-10-18T04:10:37;16.40;99.90
5258;DHT22;2651;51.594;9.928;2022-10-18T04:11:39;16.40;99.90
5258;DHT22;2651;51.594;9.928;2022-10-18T04:12:40;16.40;99.90
5258;DHT22;2651;51.594;9.928;2022-10-18T04:13:42;16.40;99.90
5258;DHT22;2651;51.594;9.928;2022-10-18T04:14:44;16.40;99.90
5258;DHT22;2651;51.594;9.928;2022-10-18T04:15:45;16.40;99.90
5258;DHT22;2651;51.594;9.928;2022-10-18T04:16:47;16.30;99.90
5258;DHT22;2651;51.594;9.928;2022-10-18T04:17:49;16.30;99.90
5258;DHT22;2651;51.594;9.928;2022-10-18T04:18:50;16.20;99.90
5258;DHT22;2651;51.594;9.928;2022-10-18T04:19:52;16.20;99.90
5258;DHT22;2651;51.594;9.928;2022-10-18T04:20:54;16.20;99.90
5258;DHT22;2651;51.594;9.928;2022-10-18T04:21:55;16.20;99.90
5258;DHT22;2651;51.594;9.928;2022-10-18T04:22:57;16.20;99.90
5258;DHT22;2651;51.594;9.928;2022-10-18T04:23:58;16.30;99.90
5258;DHT22;2651;51.594;9.928;2022-10-18T04:25:00;16.30;99.90
5258;DHT22;2651;51.594;9.928;2022-10-18T04:26:02;16.40;99.90
5258;DHT22;2651;51.594;9.928;2022-10-18T04:27:05;16.40;99.90
5258;DHT22;2651;51.594;9.928;2022-10-18T04:28:06;16.30;99.90
5258;DHT22;2651;51.594;9.928;2022-10-18T04:29:08;16.30;99.90
5258;DHT22;2651;51.594;9.928;2022-10-18T04:30:10;16.30;99.90
5258;DHT22;2651;51.594;9.928;2022-10-18T04:31:11;16.20;99.90
5258;DHT22;2651;51.594;9.928;2022-10-18T04:32:13;16.20;99.90
5258;DHT22;2651;51.594;9.928;2022-10-18T04:33:15;16.20;99.90
5258;DHT22;2651;51.594;9.928;2022-10-18T04:34:17;16.30;99.90
5258;DHT22;2651;51.594;9.928;2022-10-18T04:35:18;16.30;99.90
5258;DHT22;2651;51.594;9.928;2022-10-18T04:36:24;16.30;99.90
5258;DHT22;2651;51.594;9.928;2022-10-18T04:37:26;16.30;99.90
5258;DHT22;2651;51.594;9.928;2022-10-18T04:38:28;16.30;99.90
5258;DHT22;2651;51.594;9.928;2022-10-18T04:39:30;16.40;99.90
5258;DHT22;2651;51.594;9.928;2022-10-18T04:40:31;16.40;99.90
5258;DHT22;2651;51.594;9.928;2022-10-18T04:41:33;16.40;99.90
5258;DHT22;2651;51.594;9.928;2022-10-18T04:42:35;16.40;99.90
5258;DHT22;2651;51.594;9.928;2022-10-18T04:43:36;16.40;99.90
5258;DHT22;2651;51.594;9.928;2022-10-18T04:44:38;16.30;99.90
5258;DHT22;2651;51.594;9.928;2022-10-18T04:45:40;16.20;99.90
5258;DHT22;2651;51.594;9.928;2022-10-18T04:46:42;16.20;99.90
5258;DHT22;2651;51.594;9.928;2022-10-18T04:47:43;16.20;99.90
5258;DHT22;2651;51.594;9.928;2022-10-18T04:48:45;16.20;99.90
5258;DHT22;2651;51.594;9.928;2022-10-18T04:49:47;16.20;99.90
5258;DHT22;2651;51.594;9.928;2022-10-18T04:50:50;16.20;99.90
5258;DHT22;2651;51.594;9.928;2022-10-18T04:51:51;16.20;99.90
5258;DHT22;2651;51.594;9.928;2022-10-18T04:52:53;16.20;99.90
5258;DHT22;2651;51.594;9.928;2022-10-18T04:53:55;16.30;99.90
5258;DHT22;2651;51.594;9.928;2022-10-18T04:54:57;16.30;99.90
5258;DHT22;2651;51.594;9.928;2022-10-18T04:55:59;16.30;99.90
5258;DHT22;2651;51.594;9.928;2022-10-18T04:57:00;16.30;99.90
5258;DHT22;2651;51.594;9.928;2022-10-18T04:58:02;16.30;99.90
5258;DHT22;2651;51.594;9.928;2022-10-18T04:59:04;16.30;99.90
5258;DHT22;2651;51.594;9.928;2022-10-18T05:00:06;16.30;99.90
5258;DHT22;2651;51.594;9.928;2022-10-18T05:01:08;16.40;99.90
5258;DHT22;2651;51.594;9.928;2022-10-18T05:02:09;16.30;99.90
5258;DHT22;2651;51.594;9.928;2022-10-18T05:03:12;16.40;99.90
5258;DHT22;2651;51.594;9.928;2022-10-18T05:04:14;16.40;99.90
5258;DHT22;2651;51.594;9.928;2022-10-18T05:05:16;16.40;99.90
5258;DHT22;2651;51.594;9.928;2022-10-18T05:06:17;16.40;99.90
5258;DHT22;2651;51.594;9.928;2022-10-18T05:07:19;16.30;99.90
5258;DHT22;2651;51.594;9.928;2022-10-18T05:08:21;16.30;99.90
5258;DHT22;2651;51.594;9.928;2022-10-18T05:09:22;16.30;99.90
5258;DHT22;2651;51.594;9.928;2022-10-18T05:10:25;16.30;99.90
5258;DHT22;2651;51.594;9.928;2022-10-18T05:11:27;16.40;99.90
5258;DHT22;2651;51.594;9.928;2022-10-18T05:12:28;16.40;99.90
5258;DHT22;2651;51.594;9.928;2022-10-18T05:13:30;16.30;99.90
5258;DHT22;2651;51.594;9.928;2022-10-18T05:14:32;16.30;99.90
5258;DHT22;2651;51.594;9.928;2022-10-18T05:15:34;16.30;99.90
5258;DHT22;2651;51.594;9.928;2022-10-18T05:16:35;16.30;99.90
5258;DHT22;2651;51.594;9.928;2022-10-18T05:17:37;16.30;99.90
5258;DHT22;2651;51.594;9.928;2022-10-18T05:18:39;16.30;99.90
5258;DHT22;2651;51.594;9.928;2022-10-18T05:19:40;16.30;99.90
5258;DHT22;2651;51.594;9.928;2022-10-18T05:20:42;16.30;99.90
5258;DHT22;2651;51.594;9.928;2022-10-18T05:21:44;16.30;99.90
5258;DHT22;2651;51.594;9.928;2022-10-18T05:22:45;16.30;99.90
5258;DHT22;2651;51.594;9.928;2022-10-18T05:23:47;16.20;99.90
5258;DHT22;2651;51.594;9.928;2022-10-18T05:24:49;16.20;99.90
5258;DHT22;2651;51.594;9.928;2022-10-18T05:25:50;16.20;99.90
5258;DHT22;2651;51.594;9.928;2022-10-18T05:26:52;16.20;99.90
5258;DHT22;2651;51.594;9.928;2022-10-18T05:27:54;16.20;99.90
5258;DHT22;2651;51.594;9.928;2022-10-18T05:28:55;16.10;99.90
5258;DHT22;2651;51.594;9.928;2022-10-18T05:29:57;16.10;99.90
5258;DHT22;2651;51.594;9.928;2022-10-18T05:31:06;16.10;99.90
5258;DHT22;2651;51.594;9.928;2022-10-18T05:32:08;16.10;99.90
5258;DHT22;2651;51.594;9.928;2022-10-18T05:33:10;16.10;99.90
5258;DHT22;2651;51.594;9.928;2022-10-18T05:34:12;16.20;99.90
5258;DHT22;2651;51.594;9.928;2022-10-18T05:36:22;16.20;99.90
5258;DHT22;2651;51.594;9.928;2022-10-18T05:37:25;16.20;99.90
5258;DHT22;2651;51.594;9.928;2022-10-18T05:38:29;16.20;99.90
5258;DHT22;2651;51.594;9.928;2022-10-18T05:39:31;16.10;99.90
5258;DHT22;2651;51.594;9.928;2022-10-18T05:40:33;16.10;99.90
5258;DHT22;2651;51.594;9.928;2022-10-18T05:41:35;16.10;99.90
5258;DHT22;2651;51.594;9.928;2022-10-18T05:42:36;16.00;99.90
5258;DHT22;2651;51.594;9.928;2022-10-18T05:43:39;16.00;99.90
5258;DHT22;2651;51.594;9.928;2022-10-18T05:44:41;16.00;99.90
5258;DHT22;2651;51.594;9.928;2022-10-18T05:45:47;15.90;99.90
5258;DHT22;2651;51.594;9.928;2022-10-18T05:46:49;15.90;99.90
5258;DHT22;2651;51.594;9.928;2022-10-18T05:47:50;15.90;99.90
5258;DHT22;2651;51.594;9.928;2022-10-18T05:48:52;15.90;99.90
5258;DHT22;2651;51.594;9.928;2022-10-18T05:49:54;15.90;99.90
5258;DHT22;2651;51.594;9.928;2022-10-18T05:50:59;15.90;99.90
5258;DHT22;2651;51.594;9.928;2022-10-18T05:52:01;16.00;99.90
5258;DHT22;2651;51.594;9.928;2022-10-18T05:53:03;16.10;99.90
5258;DHT22;2651;51.594;9.928;2022-10-18T05:54:18;16.10;99.90
5258;DHT22;2651;51.594;9.928;2022-10-18T05:55:21;16.10;99.90
5258;DHT22;2651;51.594;9.928;2022-10-18T05:56:23;16.10;99.90
5258;DHT22;2651;51.594;9.928;2022-10-18T05:57:24;16.00;99.90
5258;DHT22;2651;51.594;9.928;2022-10-18T05:58:26;16.00;99.90
5258;DHT22;2651;51.594;9.928;2022-10-18T05:59:28;16.10;99.90
5258;DHT22;2651;51.594;9.928;2022-10-18T06:00:29;16.00;99.90
5258;DHT22;2651;51.594;9.928;2022-10-18T06:01:31;16.10;99.90
5258;DHT22;2651;51.594;9.928;2022-10-18T06:02:33;16.10;99.90
5258;DHT22;2651;51.594;9.928;2022-10-18T06:03:35;16.00;99.90
5258;DHT22;2651;51.594;9.928;2022-10-18T06:04:37;16.00;99.90
5258;DHT22;2651;51.594;9.928;2022-10-18T06:05:38;15.90;99.90
5258;DHT22;2651;51.594;9.928;2022-10-18T06:06:45;15.90;99.90
5258;DHT22;2651;51.594;9.928;2022-10-18T06:07:47;15.90;99.90
5258;DHT22;2651;51.594;9.928;2022-10-18T06:08:49;15.90;99.90
5258;DHT22;2651;51.594;9.928;2022-10-18T06:09:50;15.90;99.90
5258;DHT22;2651;51.594;9.928;2022-10-18T06:10:52;15.90;99.90
5258;DHT22;2651;51.594;9.928;2022-10-18T06:11:54;15.90;99.90
5258;DHT22;2651;51.594;9.928;2022-10-18T06:12:57;15.90;99.90
5258;DHT22;2651;51.594;9.928;2022-10-18T06:13:59;16.00;99.90
5258;DHT22;2651;51.594;9.928;2022-10-18T06:15:02;16.00;99.90
5258;DHT22;2651;51.594;9.928;2022-10-18T06:16:04;16.10;99.90
5258;DHT22;2651;51.594;9.928;2022-10-18T06:17:06;16.10;99.90
5258;DHT22;2651;51.594;9.928;2022-10-18T06:18:07;16.10;99.90
5258;DHT22;2651;51.594;9.928;2022-10-18T06:19:09;16.20;99.90
5258;DHT22;2651;51.594;9.928;2022-10-18T06:20:11;16.20;99.90
5258;DHT22;2651;51.594;9.928;2022-10-18T06:21:12;16.20;99.90
5258;DHT22;2651;51.594;9.928;2022-10-18T06:22:14;16.20;99.90
5258;DHT22;2651;51.594;9.928;2022-10-18T06:23:15;16.20;99.90
5258;DHT22;2651;51.594;9.928;2022-10-18T06:24:17;16.20;99.90
5258;DHT22;2651;51.594;9.928;2022-10-18T06:25:19;16.20;99.90
5258;DHT22;2651;51.594;9.928;2022-10-18T06:26:21;16.20;99.90
5258;DHT22;2651;51.594;9.928;2022-10-18T06:27:23;16.20;99.90
5258;DHT22;2651;51.594;9.928;2022-10-18T06:28:25;16.30;99.90
5258;DHT22;2651;51.594;9.928;2022-10-18T06:29:27;16.30;99.90
5258;DHT22;2651;51.594;9.928;2022-10-18T06:30:28;16.30;99.90
5258;DHT22;2651;51.594;9.928;2022-10-18T06:31:30;16.30;99.90
5258;DHT22;2651;51.594;9.928;2022-10-18T06:32:32;16.20;99.90
5258;DHT22;2651;51.594;9.928;2022-10-18T06:33:35;16.20;99.90
5258;DHT22;2651;51.594;9.928;2022-10-18T06:34:37;16.20;99.90
5258;DHT22;2651;51.594;9.928;2022-10-18T06:35:39;16.10;99.90
5258;DHT22;2651;51.594;9.928;2022-10-18T06:36:40;16.10;99.90
5258;DHT22;2651;51.594;9.928;2022-10-18T06:37:42;16.10;99.90
5258;DHT22;2651;51.594;9.928;2022-10-18T06:38:44;16.10;99.90
5258;DHT22;2651;51.594;9.928;2022-10-18T06:39:46;16.10;99.90
5258;DHT22;2651;51.594;9.928;2022-10-18T06:40:47;16.10;99.90
5258;DHT22;2651;51.594;9.928;2022-10-18T06:41:49;16.10;99.90
5258;DHT22;2651;51.594;9.928;2022-10-18T06:42:51;16.10;99.90
5258;DHT22;2651;51.594;9.928;2022-10-18T06:44:06;16.10;99.90
5258;DHT22;2651;51.594;9.928;2022-10-18T06:45:14;16.10;99.90
5258;DHT22;2651;51.594;9.928;2022-10-18T06:46:16;16.10;99.90
5258;DHT22;2651;51.594;9.928;2022-10-18T06:47:18;16.10;99.90
5258;DHT22;2651;51.594;9.928;2022-10-18T06:48:20;16.10;99.90
5258;DHT22;2651;51.594;9.928;2022-10-18T06:49:22;16.10;99.90
5258;DHT22;2651;51.594;9.928;2022-10-18T06:50:23;16.10;99.90
5258;DHT22;2651;51.594;9.928;2022-10-18T06:51:26;16.10;99.90
5258;DHT22;2651;51.594;9.928;2022-10-18T06:52:27;16.00;99.90
5258;DHT22;2651;51.594;9.928;2022-10-18T06:53:31;16.10;99.90
5258;DHT22;2651;51.594;9.928;2022-10-18T06:54:33;16.10;99.90
5258;DHT22;2651;51.594;9.928;2022-10-18T06:55:35;16.10;99.90
5258;DHT22;2651;51.594;9.928;2022-10-18T06:56:37;16.10;99.90
5258;DHT22;2651;51.594;9.928;2022-10-18T06:57:38;16.10;99.90
5258;DHT22;2651;51.594;9.928;2022-10-18T06:58:40;16.00;99.90
5258;DHT22;2651;51.594;9.928;2022-10-18T06:59:42;16.10;99.90
5258;DHT22;2651;51.594;9.928;2022-10-18T07:00:43;16.00;99.90
5258;DHT22;2651;51.594;9.928;2022-10-18T07:01:46;16.00;99.90
5258;DHT22;2651;51.594;9.928;2022-10-18T07:02:48;16.00;99.90
5258;DHT22;2651;51.594;9.928;2022-10-18T07:03:52;16.00;99.90
5258;DHT22;2651;51.594;9.928;2022-10-18T07:04:54;16.10;99.90
5258;DHT22;2651;51.594;9.928;2022-10-18T07:05:59;16.10;99.90
5258;DHT22;2651;51.594;9.928;2022-10-18T07:07:02;16.10;99.90
5258;DHT22;2651;51.594;9.928;2022-10-18T07:08:03;16.10;99.90
5258;DHT22;2651;51.594;9.928;2022-10-18T07:09:05;16.10;99.90
5258;DHT22;2651;51.594;9.928;2022-10-18T07:10:07;16.10;99.90
5258;DHT22;2651;51.594;9.928;2022-10-18T07:11:18;16.10;99.90
5258;DHT22;2651;51.594;9.928;2022-10-18T07:12:20;16.10;99.90
5258;DHT22;2651;51.594;9.928;2022-10-18T07:13:22;16.10;99.90
5258;DHT22;2651;51.594;9.928;2022-10-18T07:14:39;16.00;99.90
5258;DHT22;2651;51.594;9.928;2022-10-18T07:15:40;16.00;99.90
5258;DHT22;2651;51.594;9.928;2022-10-18T07:16:42;16.00;99.90
5258;DHT22;2651;51.594;9.928;2022-10-18T07:17:44;16.00;99.90
5258;DHT22;2651;51.594;9.928;2022-10-18T07:18:48;15.90;99.90